地図

経路データ

SID SEASON NUMBER BASIN SUBBASIN NAME ISO_TIME NATURE LAT LON WMO_WIND WMO_PRES WMO_AGENCY TRACK_TYPE DIST2LAND LANDFALL IFLAG USA_AGENCY USA_ATCF_ID USA_LAT USA_LON USA_RECORD USA_STATUS USA_WIND USA_PRES USA_SSHS USA_R34_NE USA_R34_SE USA_R34_SW USA_R34_NW USA_R50_NE USA_R50_SE USA_R50_SW USA_R50_NW USA_R64_NE USA_R64_SE USA_R64_SW USA_R64_NW USA_POCI USA_ROCI USA_RMW USA_EYE TOKYO_LAT TOKYO_LON TOKYO_GRADE TOKYO_WIND TOKYO_PRES TOKYO_R50_DIR TOKYO_R50_LONG TOKYO_R50_SHORT TOKYO_R30_DIR TOKYO_R30_LONG TOKYO_R30_SHORT TOKYO_LAND CMA_LAT CMA_LON CMA_CAT CMA_WIND CMA_PRES HKO_LAT HKO_LON HKO_CAT HKO_WIND HKO_PRES NEWDELHI_LAT NEWDELHI_LON NEWDELHI_GRADE NEWDELHI_WIND NEWDELHI_PRES NEWDELHI_CI NEWDELHI_DP NEWDELHI_POCI REUNION_LAT REUNION_LON REUNION_TYPE REUNION_WIND REUNION_PRES REUNION_TNUM REUNION_CI REUNION_RMW REUNION_R34_NE REUNION_R34_SE REUNION_R34_SW REUNION_R34_NW REUNION_R50_NE REUNION_R50_SE REUNION_R50_SW REUNION_R50_NW REUNION_R64_NE REUNION_R64_SE REUNION_R64_SW REUNION_R64_NW BOM_LAT BOM_LON BOM_TYPE BOM_WIND BOM_PRES BOM_TNUM BOM_CI BOM_RMW BOM_R34_NE BOM_R34_SE BOM_R34_SW BOM_R34_NW BOM_R50_NE BOM_R50_SE BOM_R50_SW BOM_R50_NW BOM_R64_NE BOM_R64_SE BOM_R64_SW BOM_R64_NW BOM_ROCI BOM_POCI BOM_EYE BOM_POS_METHOD BOM_PRES_METHOD NADI_LAT NADI_LON NADI_CAT NADI_WIND NADI_PRES WELLINGTON_LAT WELLINGTON_LON WELLINGTON_WIND WELLINGTON_PRES DS824_LAT DS824_LON DS824_STAGE DS824_WIND DS824_PRES TD9636_LAT TD9636_LON TD9636_STAGE TD9636_WIND TD9636_PRES TD9635_LAT TD9635_LON TD9635_WIND TD9635_PRES TD9635_ROCI NEUMANN_LAT NEUMANN_LON NEUMANN_CLASS NEUMANN_WIND NEUMANN_PRES MLC_LAT MLC_LON MLC_CLASS MLC_WIND MLC_PRES USA_GUST BOM_GUST BOM_GUST_PER REUNION_GUST REUNION_GUST_PER USA_SEAHGT USA_SEARAD_NE USA_SEARAD_SE USA_SEARAD_SW USA_SEARAD_NW STORM_SPEED STORM_DIR
1910011S10048 1910 2 SI MM NOT_NAMED 1910-01-11 00:00:00 TS -9.70000 47.7000 main 314 293 _________O____ -1 -9.70000 47.7000 TC 7 207
1910011S10048 1910 2 SI MM NOT_NAMED 1910-01-11 03:00:00 TS -10.0000 47.5476 main 299 293 _________P____ -1 -10.0000 47.5476 TC 3 202
1910011S10048 1910 2 SI MM NOT_NAMED 1910-01-11 06:00:00 TS -9.94000 47.6000 reunion main 302 290 _____O___OO___ -1 -9.10000 48.1000 99 9.90000 -10.3000 47.4000 TC -9.70000 47.7000 7 1 199
1910011S10048 1910 2 SI MM NOT_NAMED 1910-01-11 09:00:00 TS -10.0747 47.5369 main 290 282 _____P___PP___ -1 -9.10521 48.0715 99 -10.6000 47.2575 TC -9.99377 47.5610 7 3 206
1910011S10048 1910 2 SI MM NOT_NAMED 1910-01-11 12:00:00 TS -10.1821 47.4772 main 282 281 _____P___OP___ -1 -9.11706 48.0398 99 -10.9000 47.1000 TC -10.2900 47.4175 7 3 212
1910011S10048 1910 2 SI MM NOT_NAMED 1910-01-11 15:00:00 TS -10.3112 47.3890 main 281 273 _____P___PP___ -1 -9.14220 48.0017 99 -11.2000 46.9000 TC -10.5913 47.2653 7 4 213
1910011S10048 1910 2 SI MM NOT_NAMED 1910-01-11 18:00:00 TS -10.5291 47.2513 main 273 265 _____P___OO___ -1 -9.18729 47.9538 99 -11.5000 46.7000 TC -10.9000 47.1000 7 5 211
1910011S10048 1910 2 SI MM NOT_NAMED 1910-01-11 21:00:00 TS -10.7634 47.1160 main 265 257 _____P___PP___ -1 -9.25897 47.8930 99 -11.8150 46.5350 TC -11.2163 46.9201 7 5 209
1910011S10048 1910 2 SI MM NOT_NAMED 1910-01-12 00:00:00 TS -10.9980 46.9837 main 258 252 _____P___OP___ -1 -9.36389 47.8159 99 -12.1000 46.4000 TC -11.5300 46.7351 7 5 209
1910011S10048 1910 2 SI MM NOT_NAMED 1910-01-12 03:00:00 TS -11.2175 46.8565 main 252 250 _____P___PP___ -1 -9.50868 47.7194 99 -12.3150 46.2924 TC -11.8288 46.5576 7 5 210
1910011S10048 1910 2 SI MM NOT_NAMED 1910-01-12 06:00:00 TS -11.4333 46.7333 reunion main 259 249 _____O___OO___ -1 -9.70000 47.6000 99 9.90000 -12.5000 46.2000 TC -12.1000 46.4000 7 5 209
1910011S10048 1910 2 SI MM NOT_NAMED 1910-01-12 09:00:00 TS -11.6581 46.6076 main 255 250 _____P___PP___ -1 -9.94155 47.4560 99 -12.7000 46.0925 TC -12.3327 46.2742 7 5 208
1910011S10048 1910 2 SI MM NOT_NAMED 1910-01-12 12:00:00 TS -11.8876 46.4871 main 250 241 _____P___OP___ -1 -10.2253 47.2915 99 -12.9000 46.0000 TC -12.5374 46.1698 7 5 205
1910011S10048 1910 2 SI MM NOT_NAMED 1910-01-12 15:00:00 TS -12.1237 46.3809 main 241 233 _____P___PP___ -1 -10.5403 47.1123 99 -13.1075 45.9500 TC -12.7234 46.0805 7 5 204
1910011S10048 1910 2 SI MM NOT_NAMED 1910-01-12 18:00:00 TS -12.3585 46.2747 main 226 221 _____P___OO___ -1 -10.8755 46.9241 99 -13.3000 45.9000 TC -12.9000 46.0000 7 5 206
1910011S10048 1910 2 SI MM NOT_NAMED 1910-01-12 21:00:00 TS -12.5893 46.1527 main 221 219 _____P___PP___ -1 -11.2201 46.7329 99 -13.4575 45.8075 TC -13.0903 45.9178 7 5 208
1910011S10048 1910 2 SI MM NOT_NAMED 1910-01-13 00:00:00 TS -12.8118 46.0290 main 229 224 _____P___OP___ -1 -11.5629 46.5446 99 -13.6000 45.7000 TC -13.2725 45.8424 7 5 208
1910011S10048 1910 2 SI MM NOT_NAMED 1910-01-13 03:00:00 TS -13.0314 45.9094 main 230 226 _____P___PP___ -1 -11.8932 46.3649 99 -13.7575 45.5925 TC -13.4434 45.7709 7 5 208
1910011S10048 1910 2 SI MM NOT_NAMED 1910-01-13 06:00:00 TS -13.2333 45.8000 reunion main 234 231 _____O___OO___ -1 -12.2000 46.2000 99 9.90000 -13.9000 45.5000 TC -13.6000 45.7000 7 4 208
1910011S10048 1910 2 SI MM NOT_NAMED 1910-01-13 09:00:00 TS -13.4006 45.7118 main 240 233 _____P___PP___ -1 -12.4550 46.0679 99 -14.0075 45.4425 TC -13.7394 45.6250 7 4 207
1910011S10048 1910 2 SI MM NOT_NAMED 1910-01-13 12:00:00 TS -13.5526 45.6327 main 228 218 _____P___OP___ -1 -12.6928 45.9482 99 -14.1000 45.4000 TC -13.8650 45.5499 7 3 207
1910011S10048 1910 2 SI MM NOT_NAMED 1910-01-13 15:00:00 TS -13.6966 45.5572 main 218 214 _____P___PP___ -1 -12.9141 45.8392 99 -14.1925 45.3575 TC -13.9831 45.4750 7 3 207
1910011S10048 1910 2 SI MM NOT_NAMED 1910-01-13 18:00:00 TS -13.8399 45.4798 main 214 203 _____P___OO___ -1 -13.1196 45.7394 99 -14.3000 45.3000 TC -14.1000 45.4000 7 3 208
1910011S10048 1910 2 SI MM NOT_NAMED 1910-01-13 21:00:00 TS -13.9964 45.3894 main 203 194 _____P___PP___ -1 -13.3102 45.6471 99 -14.4500 45.2000 TC -14.2291 45.3209 7 4 209
1910011S10048 1910 2 SI MM NOT_NAMED 1910-01-14 00:00:00 TS -14.1480 45.3011 main 201 184 _____P___OP___ -1 -13.4866 45.5609 99 -14.6000 45.1000 TC -14.3575 45.2425 7 3 208
1910011S10048 1910 2 SI MM NOT_NAMED 1910-01-14 03:00:00 TS -14.2798 45.2298 main 184 173 _____P___PP___ -1 -13.6496 45.4790 99 -14.7075 45.0425 TC -14.4822 45.1678 7 3 208
1910011S10048 1910 2 SI MM NOT_NAMED 1910-01-14 06:00:00 TS -14.4000 45.1667 reunion main 173 165 _____O___OO___ -1 -13.8000 45.4000 99 9.90000 -14.8000 45.0000 TC -14.6000 45.1000 7 3 208
1910011S10048 1910 2 SI MM NOT_NAMED 1910-01-14 09:00:00 TS -14.5109 45.0995 main 165 155 _____P___PP___ -1 -13.9412 45.3098 99 -14.8925 44.9500 TC -14.6991 45.0387 7 3 210
1910011S10048 1910 2 SI MM NOT_NAMED 1910-01-14 12:00:00 TS -14.6199 45.0360 main 157 145 _____P___OP___ -1 -14.0671 45.2232 99 -15.0000 44.9000 TC -14.7925 44.9850 7 3 208
1910011S10048 1910 2 SI MM NOT_NAMED 1910-01-14 15:00:00 TS -14.7379 44.9739 main 145 124 _____P___PP___ -1 -14.1814 45.1405 99 -15.1425 44.8425 TC -14.8897 44.9387 7 3 205
1910011S10048 1910 2 SI MM NOT_NAMED 1910-01-14 18:00:00 TS -14.8625 44.9207 main 124 113 _____P___OO___ -1 -14.2874 45.0622 99 -15.3000 44.8000 TC -15.0000 44.9000 7 3 199
1910011S10048 1910 2 SI MM NOT_NAMED 1910-01-14 21:00:00 TS -14.9863 44.8854 main 113 102 _____P___PP___ -1 -14.3888 44.9886 99 -15.4425 44.8000 TC -15.1275 44.8678 7 3 194
1910011S10048 1910 2 SI MM NOT_NAMED 1910-01-15 00:00:00 TS -15.1197 44.8542 main 102 84 _____P___OP___ -1 -14.4890 44.9201 99 -15.6000 44.8000 TC -15.2700 44.8425 7 3 194
1910011S10048 1910 2 SI MM NOT_NAMED 1910-01-15 03:00:00 TS -15.2705 44.8094 main 84 74 _____P___PP___ -1 -14.5916 44.8571 99 -15.7925 44.7500 TC -15.4275 44.8209 7 3 196
1910011S10048 1910 2 SI MM NOT_NAMED 1910-01-15 06:00:00 TS -15.4333 44.7667 reunion main 74 61 _____O___OO___ -1 -14.7000 44.8000 99 9.90000 -16.0000 44.7000 TC -15.6000 44.8000 7 3 193
1910011S10048 1910 2 SI MM NOT_NAMED 1910-01-15 09:00:00 TS -15.6040 44.7296 main 61 46 _____P___PP___ -1 -14.8224 44.7409 99 -16.2000 44.6850 TC -15.7897 44.7629 7 4 189
1910011S10048 1910 2 SI MM NOT_NAMED 1910-01-15 12:00:00 TS -15.7803 44.7049 main 46 30 _____P___OP___ -1 -14.9484 44.6872 99 -16.4000 44.7000 TC -15.9925 44.7276 7 4 187
1910011S10048 1910 2 SI MM NOT_NAMED 1910-01-15 15:00:00 TS -15.9616 44.6951 main 30 22 _____P___PP___ -1 -15.0783 44.6393 99 -16.6075 44.7425 TC -16.1991 44.7035 7 4 184
1910011S10048 1910 2 SI MM NOT_NAMED 1910-01-15 18:00:00 TS -16.1375 44.6992 main 22 0 _____P___OO___ -1 -15.2125 44.5976 99 -16.8000 44.8000 TC -16.4000 44.7000 7 3 0
1910011S10048 1910 2 SI MM NOT_NAMED 1910-01-15 21:00:00 TS -16.2997 44.7174 main 0 0 _____P___PP___ -1 -15.3513 44.5624 99 -16.9575 44.8575 TC -16.5903 44.7324 7 3 172
1910011S10048 1910 2 SI MM NOT_NAMED 1910-01-16 00:00:00 TS -16.4559 44.7397 main 0 0 _____P___OP___ -1 -15.4953 44.5341 99 -17.1000 44.9000 TC -16.7725 44.7849 7 3 172
1910011S10048 1910 2 SI MM NOT_NAMED 1910-01-16 03:00:00 TS -16.6152 44.7527 main 0 0 _____P___PP___ -1 -15.6447 44.5132 99 -17.2575 44.9000 TC -16.9435 44.8449 7 3 176
1910011S10048 1910 2 SI MM NOT_NAMED 1910-01-16 06:00:00 TS -16.7667 44.7667 reunion main 0 0 _____O___OO___ -1 -15.8000 44.5000 99 9.90000 -17.4000 44.9000 TC -17.1000 44.9000 7 3 172
1910011S10048 1910 2 SI MM NOT_NAMED 1910-01-16 09:00:00 TS -16.9033 44.7869 main 0 0 _____P___PP___ -1 -15.9706 44.4900 99 -17.5000 44.9425 TC -17.2394 44.9282 7 3 172
1910011S10048 1910 2 SI MM NOT_NAMED 1910-01-16 12:00:00 TS -17.0379 44.8127 main 0 0 _____P___OP___ -1 -16.1487 44.4880 99 -17.6000 45.0000 TC -17.3650 44.9501 7 3 168
1910011S10048 1910 2 SI MM NOT_NAMED 1910-01-16 15:00:00 TS -17.1881 44.8384 main 0 0 _____P___PP___ -1 -16.3312 44.4932 99 -17.7500 45.0500 TC -17.4831 44.9719 7 3 169
1910011S10048 1910 2 SI MM NOT_NAMED 1910-01-16 18:00:00 TS -17.3383 44.8683 main 0 0 _____P___OO___ -1 -16.5150 44.5048 99 -17.9000 45.1000 TC -17.6000 45.0000 7 3 169
1910011S10048 1910 2 SI MM NOT_NAMED 1910-01-16 21:00:00 TS -17.4739 44.9036 main 0 0 _____P___PP___ -1 -16.6968 44.5221 99 -18.0000 45.1500 TC -17.7250 45.0388 7 3 167
1910011S10048 1910 2 SI MM NOT_NAMED 1910-01-17 00:00:00 TS -17.6079 44.9431 main 0 0 _____P___OP___ -1 -16.8737 44.5443 99 -18.1000 45.2000 TC -17.8500 45.0850 7 3 164
1910011S10048 1910 2 SI MM NOT_NAMED 1910-01-17 03:00:00 TS -17.7558 44.9839 main 0 0 _____P___PP___ -1 -17.0425 44.5705 99 -18.2500 45.2425 TC -17.9750 45.1388 7 3 162
1910011S10048 1910 2 SI MM NOT_NAMED 1910-01-17 06:00:00 TS -17.9000 45.0333 reunion main 0 0 _____O___OO___ -1 -17.2000 44.6000 99 9.90000 -18.4000 45.3000 TC -18.1000 45.2000 7 3 157
1910011S10048 1910 2 SI MM NOT_NAMED 1910-01-17 09:00:00 TS -18.0235 45.0981 main 0 0 _____P___PP___ -1 -17.3338 44.6225 99 -18.5075 45.4000 TC -18.2291 45.2719 7 3 153
1910011S10048 1910 2 SI MM NOT_NAMED 1910-01-17 12:00:00 TS -18.1381 45.1662 main 0 0 _____P___OP___ -1 -17.4568 44.6486 99 -18.6000 45.5000 TC -18.3575 45.3500 7 3 153
1910011S10048 1910 2 SI MM NOT_NAMED 1910-01-17 15:00:00 TS -18.2512 45.2214 main 0 0 _____P___PP___ -1 -17.5714 44.6785 99 -18.7000 45.5575 TC -18.4822 45.4281 7 2 157
1910011S10048 1910 2 SI MM NOT_NAMED 1910-01-17 18:00:00 TS -18.3600 45.2709 main 0 0 _____P___OO___ -1 -17.6799 44.7127 99 -18.8000 45.6000 TC -18.6000 45.5000 7 2 156
1910011S10048 1910 2 SI MM NOT_NAMED 1910-01-17 21:00:00 TS -18.4587 45.3144 main 0 0 _____P___PP___ -1 -17.7847 44.7516 99 -18.8925 45.6425 TC -18.6990 45.5492 7 2 155
1910011S10048 1910 2 SI MM NOT_NAMED 1910-01-18 00:00:00 TS -18.5602 45.3627 main 0 0 _____P___OP___ -1 -17.8881 44.7955 99 -19.0000 45.7000 TC -18.7924 45.5927 7 2 154
1910011S10048 1910 2 SI MM NOT_NAMED 1910-01-18 03:00:00 TS -18.6748 45.4257 main 0 0 _____P___PP___ -1 -17.9924 44.8448 99 -19.1425 45.7925 TC -18.8896 45.6398 7 3 151
1910011S10048 1910 2 SI MM NOT_NAMED 1910-01-18 06:00:00 TS -18.8000 45.5000 reunion main 0 0 _____O___OO___ -1 -18.1000 44.9000 99 9.90000 -19.3000 45.9000 TC -19.0000 45.7000 7 3 150
1910011S10048 1910 2 SI MM NOT_NAMED 1910-01-18 09:00:00 TS -18.9367 45.5809 main 0 0 _____P___PP___ -1 -18.2203 44.9572 99 -19.4500 46.0000 TC -19.1397 45.7856 7 3 150
1910011S10048 1910 2 SI MM NOT_NAMED 1910-01-18 12:00:00 TS -19.0784 45.6684 main 0 0 _____P___OP___ -1 -18.3428 45.0204 99 -19.6000 46.1000 TC -19.2925 45.8849 7 3 150
1910011S10048 1910 2 SI MM NOT_NAMED 1910-01-18 15:00:00 TS -19.2245 45.7603 main 0 0 _____P___PP___ -1 -18.4670 45.0889 99 -19.7575 46.2000 TC -19.4491 45.9918 7 3 148
1910011S10048 1910 2 SI MM NOT_NAMED 1910-01-18 18:00:00 TS -19.3642 45.8542 main 0 0 _____P___OO___ -1 -18.5925 45.1626 99 -19.9000 46.3000 TC -19.6000 46.1000 7 3 145
1910011S10048 1910 2 SI MM NOT_NAMED 1910-01-18 21:00:00 TS -19.4889 45.9508 main 0 0 _____P___PP___ -1 -18.7189 45.2409 99 -20.0075 46.4075 TC -19.7403 46.2041 7 3 144
1910011S10048 1910 2 SI MM NOT_NAMED 1910-01-19 00:00:00 TS -19.6061 46.0437 main 0 0 _____P___OP___ -1 -18.8459 45.3236 99 -20.1000 46.5000 TC -19.8725 46.3075 7 3 145
1910011S10048 1910 2 SI MM NOT_NAMED 1910-01-19 03:00:00 TS -19.7247 46.1224 main 0 0 _____P___PP___ -1 -18.9731 45.4100 99 -20.2075 46.5500 TC -19.9934 46.4072 7 3 147
1910011S10048 1910 2 SI MM NOT_NAMED 1910-01-19 06:00:00 TS -19.8333 46.2000 reunion main 0 0 _____O___OO___ -1 -19.1000 45.5000 99 9.90000 -20.3000 46.6000 TC -20.1000 46.5000 7 3 142
1910011S10048 1910 2 SI MM NOT_NAMED 1910-01-19 09:00:00 TS -19.9227 46.2872 main 0 0 _____P___PP___ -1 -19.2288 45.5907 99 -20.3500 46.6925 TC -20.1893 46.5782 7 2 136
1910011S10048 1910 2 SI MM NOT_NAMED 1910-01-19 12:00:00 TS -20.0077 46.3786 main 0 0 _____P___OP___ -1 -19.3581 45.6856 99 -20.4000 46.8000 TC -20.2649 46.6501 7 3 137
1910011S10048 1910 2 SI MM NOT_NAMED 1910-01-19 15:00:00 TS -20.1067 46.4686 main 0 0 _____P___PP___ -1 -19.4871 45.7840 99 -20.5000 46.9000 TC -20.3331 46.7220 7 3 139
1910011S10048 1910 2 SI MM NOT_NAMED 1910-01-19 18:00:00 TS -20.2050 46.5617 main 0 0 _____P___OO___ -1 -19.6150 45.8850 99 -20.6000 47.0000 TC -20.4000 46.8000 7 2 134
1910011S10048 1910 2 SI MM NOT_NAMED 1910-01-19 21:00:00 TS -20.2821 46.6564 main 0 0 _____P___PP___ -1 -19.7410 45.9879 99 -20.6425 47.0926 TC -20.4628 46.8888 7 2 131
1910011S10048 1910 2 SI MM NOT_NAMED 1910-01-20 00:00:00 TS -20.3639 46.7590 main 0 0 _____P___OP___ -1 -19.8644 46.0919 99 -20.7000 47.2000 TC -20.5275 46.9851 7 3 132
1910011S10048 1910 2 SI MM NOT_NAMED 1910-01-20 03:00:00 TS -20.4742 46.8783 main 0 0 _____P___PP___ -1 -19.9843 46.1962 99 -20.8350 47.3499 TC -20.6034 47.0889 7 3 136
1910011S10048 1910 2 SI MM NOT_NAMED 1910-01-20 06:00:00 TS -20.6000 47.0000 reunion main 0 0 _____O___OO___ -1 -20.1000 46.3000 99 9.90000 -21.0000 47.5000 TC -20.7000 47.2000 7 3 140
1910011S10048 1910 2 SI MM NOT_NAMED 1910-01-20 09:00:00 TS -20.7358 47.1098 main 0 0 _____P___PP___ -1 -20.2093 46.4001 99 -21.1575 47.6075 TC -20.8406 47.3218 7 3 143
1910011S10048 1910 2 SI MM NOT_NAMED 1910-01-20 12:00:00 TS -20.8714 47.2167 main 0 0 _____P___OP___ -1 -20.3143 46.5002 99 -21.3000 47.7000 TC -21.0000 47.4498 7 3 142
1910011S10048 1910 2 SI MM NOT_NAMED 1910-01-20 15:00:00 TS -20.9968 47.3261 main 0 0 _____P___PP___ -1 -20.4159 46.6003 99 -21.4150 47.8000 TC -21.1594 47.5780 7 3 140
1910011S10048 1910 2 SI MM NOT_NAMED 1910-01-20 18:00:00 TS -21.0691 47.3910 main 0 0 _____P___OO___ -1 -20.5149 46.7003 99 -21.5000 47.9000 TC -21.3000 47.7000 7 2 137
1910011S10048 1910 2 SI MM NOT_NAMED 1910-01-20 21:00:00 TS -21.1194 47.4445 main 0 0 _____P___PP___ -1 -20.6120 46.8003 99 -21.5575 48.0000 TC -21.4078 47.8110 7 1 140
1910011S10048 1910 2 SI MM NOT_NAMED 1910-01-21 00:00:00 TS -21.1118 47.4298 main 0 0 _____P___OP___ -1 -20.7081 46.9002 99 -21.6000 48.1000 TC -21.4875 47.9126 7 1 303
1910011S10048 1910 2 SI MM NOT_NAMED 1910-01-21 03:00:00 NR -21.0520 47.3360 main 0 0 _____P____P___ -1 -20.8038 47.0001 99 TC -21.5484 48.0079 7 1 302
1910011S10048 1910 2 SI MM NOT_NAMED 1910-01-21 06:00:00 NR -21.0400 47.3000 reunion main 0 0 _____O____O___ -1 -20.9000 47.1000 99 9.90000 -21.6000 48.1000 7 1 291
1910011S10048 1910 2 SI MM NOT_NAMED 1910-01-21 09:00:00 NR -21.0057 47.2019 main 0 0 _____P________ -1 -21.0057 47.2019 99 7 1 0
1910011S10048 1910 2 SI MM NOT_NAMED 1910-01-21 12:00:00 NR -21.1121 47.3041 main 0 0 _____P________ -1 -21.1121 47.3041 99 7 3 138
1910011S10048 1910 2 SI MM NOT_NAMED 1910-01-21 15:00:00 NR -21.2181 47.4060 main 0 0 _____P________ -1 -21.2181 47.4060 99 7 3 138
1910011S10048 1910 2 SI MM NOT_NAMED 1910-01-21 18:00:00 NR -21.3225 47.5075 main 0 0 _____P________ -1 -21.3225 47.5075 99 3 137
1910011S10048 1910 2 SI MM NOT_NAMED 1910-01-21 21:00:00 NR -21.4240 47.6080 main 0 0 _____P________ -1 -21.4240 47.6080 99 3 137
1910011S10048 1910 2 SI MM NOT_NAMED 1910-01-22 00:00:00 NR -21.5215 47.7072 main 0 0 _____P________ -1 -21.5215 47.7072 99 3 136
1910011S10048 1910 2 SI MM NOT_NAMED 1910-01-22 03:00:00 NR -21.6139 47.8046 main 0 0 _____P________ -1 -21.6139 47.8046 99 3 135
1910011S10048 1910 2 SI MM NOT_NAMED 1910-01-22 06:00:00 NR -21.7000 47.9000 reunion main 0 0 _____O________ -1 -21.7000 47.9000 99 9.90000 2 133
1910011S10048 1910 2 SI MM NOT_NAMED 1910-01-22 09:00:00 NR -21.7789 47.9930 main 0 0 _____P________ -1 -21.7789 47.9930 99 2 131
1910011S10048 1910 2 SI MM NOT_NAMED 1910-01-22 12:00:00 NR -21.8513 48.0837 main 0 0 _____P________ -1 -21.8513 48.0837 99 2 130
1910011S10048 1910 2 SI MM NOT_NAMED 1910-01-22 15:00:00 NR -21.9180 48.1726 main 10 10 _____P________ -1 -21.9180 48.1726 99 2 128
1910011S10048 1910 2 SI MM NOT_NAMED 1910-01-22 18:00:00 NR -21.9801 48.2599 main 20 20 _____P________ -1 -21.9801 48.2599 99 2 127
1910011S10048 1910 2 SI MM NOT_NAMED 1910-01-22 21:00:00 NR -22.0384 48.3460 main 20 20 _____P________ -1 -22.0384 48.3460 99 2 126
1910011S10048 1910 2 SI MM NOT_NAMED 1910-01-23 00:00:00 NR -22.0939 48.4312 main 32 32 _____P________ -1 -22.0939 48.4312 99 2 124
1910011S10048 1910 2 SI MM NOT_NAMED 1910-01-23 03:00:00 NR -22.1474 48.5157 main 42 42 _____P________ -1 -22.1474 48.5157 99 2 124
1910011S10048 1910 2 SI MM NOT_NAMED 1910-01-23 06:00:00 NR -22.2000 48.6000 reunion main 56 _____O________ -1 -22.2000 48.6000 99 9.90000 2 123

IBTrACS Databaseについて

本データベースは、米国NOAAが公開する1842年以降の世界の熱帯低気圧のベストトラックデータアーカイブInternational Best Track Archive for Climate Stewardship (IBTrACS)を、ウェブで閲覧しやすい形式に変換したものです。

最終更新日:2021-10-21